Eleni K III — 9HOA8 — position and weather

sailwx.info

Track history (hours):
 
Tides and Currents Weather Stations Pressure Air Temp Water Temp Dewpoint Dewpoint Depression Visibility Wind Speed Wind Dir Waves Ship Positions

Eleni K III

Last reported at 2017-Oct-22 05:39 UTC. Time now 2017-Oct-22 06:37 UTC.
Position N 38°36' E 025°01'.

Length 81 m; draft 5.5 m.

Type: Cargo ship. MMSI: 256203000.

Date/timePositionNaut miles runAvg speedWind from/ knotsBaromVisibWave heightAir tempDewpointWater temp
2017-Oct-22 05:39N 38°36' E 025°01'11 9.1
2017-Oct-22 04:25N 38°46' E 025°07'60 8.9
2017-Oct-21 21:39N 39°40' E 025°42'7 8.4
2017-Oct-21 20:47N 39°47' E 025°46'7 9.1
2017-Oct-21 20:02N 39°53' E 025°50'0 9.3
2017-Oct-21 20:00N 39°53' E 025°50'5 9.1
2017-Oct-21 19:28N 39°57' E 025°54'9 8.8
2017-Oct-21 18:29N 40°01' E 026°04'7 9.8
2017-Oct-21 17:46N 40°02' E 026°13'11 9.7
2017-Oct-21 16:39N 40°10' E 026°23'1 9.8
2017-Oct-21 16:30N 40°11' E 026°23'141 6.8
2017-Oct-20 19:55N 41°25' E 029°00'1 1.1
2017-Oct-20 19:15N 41°26' E 029°01'0 1.0
2017-Oct-20 18:53N 41°26' E 029°02'1 1.9
2017-Oct-20 18:19N 41°25' E 029°01'0 1.2
2017-Oct-20 18:00N 41°25' E 029°01'0 0.6
2017-Oct-20 17:28N 41°25' E 029°02'0 0.9
2017-Oct-20 17:00N 41°25' E 029°02'0 0.9
2017-Oct-20 16:30N 41°26' E 029°02'0 0.6
2017-Oct-20 16:00N 41°26' E 029°03'0 0.3
2017-Oct-20 15:30N 41°26' E 029°03'0 0.7
2017-Oct-20 15:00N 41°26' E 029°03'4 4.5
2017-Oct-20 14:00N 41°21' E 029°04'0 0.4
2017-Oct-20 13:30N 41°21' E 029°04'0 0.4
2017-Oct-20 13:00N 41°21' E 029°05'0 0.4
2017-Oct-20 12:30N 41°22' E 029°05'0 0.4
2017-Oct-20 11:57N 41°22' E 029°05'0 0.4
2017-Oct-20 11:30N 41°22' E 029°05'0 0.3
2017-Oct-20 11:00N 41°22' E 029°05'0 0.4
2017-Oct-20 10:30N 41°22' E 029°04'0 0.3
2017-Oct-20 10:00N 41°22' E 029°04'0 0.2
2017-Oct-20 09:26N 41°23' E 029°04'0 0.2
2017-Oct-20 09:00N 41°23' E 029°04'0 0.2
2017-Oct-20 08:30N 41°23' E 029°04'0 0.1
2017-Oct-20 07:41N 41°23' E 029°04'0 0.1
2017-Oct-20 07:30N 41°23' E 029°04'0 0.1
2017-Oct-20 07:00N 41°23' E 029°04'0 0.2
2017-Oct-20 06:30N 41°23' E 029°04'0 0.2
2017-Oct-20 06:00N 41°23' E 029°04'0 0.3
2017-Oct-20 05:30N 41°23' E 029°04'0 0.3
2017-Oct-20 05:00N 41°23' E 029°04'0 0.3
2017-Oct-20 04:30N 41°23' E 029°05'0 0.2
2017-Oct-20 04:00N 41°23' E 029°05'0 0.3
2017-Oct-20 03:30N 41°23' E 029°05'0 0.3
2017-Oct-20 03:00N 41°23' E 029°05'0 0.2
2017-Oct-20 02:30N 41°23' E 029°05'0 0.3
2017-Oct-20 01:47N 41°24' E 029°05'0 0.4
2017-Oct-20 01:23N 41°24' E 029°05'0 0.4
2017-Oct-20 01:00N 41°24' E 029°05'0 0.4
2017-Oct-20 00:30N 41°24' E 029°05'0 0.4
2017-Oct-20 00:00N 41°24' E 029°05'0 0.5
2017-Oct-19 23:28N 41°25' E 029°05'0 0.5
2017-Oct-19 23:00N 41°25' E 029°05'0 0.5
2017-Oct-19 22:04N 41°25' E 029°05'0 0.5
2017-Oct-19 22:00N 41°25' E 029°05'0 0.5
2017-Oct-19 21:30N 41°25' E 029°05'0 0.5
2017-Oct-19 21:00N 41°26' E 029°04'0 0.6
2017-Oct-19 20:30N 41°26' E 029°04'1 2.2
2017-Oct-19 20:00N 41°27' E 029°04'4 8.0
2017-Oct-19 19:30N 41°31' E 029°04'4 8.6
2017-Oct-19 19:00N 41°35' E 029°05'5 9.9
2017-Oct-19 18:28N 41°40' E 029°05'5 9.8
2017-Oct-19 18:00N 41°45' E 029°04'5 9.6
2017-Oct-19 17:30N 41°50' E 029°04'5 9.2
2017-Oct-19 16:59N 41°55' E 029°03'6 9.2
2017-Oct-19 16:18N 42°01' E 029°02'3 9.0
2017-Oct-19 16:00N 42°03' E 029°02'24 9.1
2017-Oct-19 13:20N 42°28' E 028°59'3 9.5
2017-Oct-19 13:01N 42°31' E 028°59'5 9.4
2017-Oct-19 12:31N 42°35' E 028°58'5 9.4
2017-Oct-19 12:00N 42°40' E 028°58'5 9.4
2017-Oct-19 11:31N 42°45' E 028°57'5 9.4
2017-Oct-19 11:01N 42°49' E 028°57'5 9.2
2017-Oct-19 10:30N 42°54' E 028°56'5 9.0
2017-Oct-19 10:00N 42°58' E 028°56'5 9.1
2017-Oct-19 09:30N 43°03' E 028°55'5 9.2
2017-Oct-19 09:00N 43°08' E 028°55'5 9.3
2017-Oct-19 08:30N 43°12' E 028°54'5 9.2
2017-Oct-19 08:00N 43°17' E 028°53'5 9.1
2017-Oct-19 07:30N 43°21' E 028°53'5 9.0
2017-Oct-19 07:00N 43°26' E 028°52'5 9.1
2017-Oct-19 06:30N 43°30' E 028°52'4 9.0
2017-Oct-19 06:00N 43°35' E 028°51'5 9.1
2017-Oct-19 05:30N 43°39' E 028°51'4 8.9
2017-Oct-19 05:00N 43°44' E 028°50'4 8.5
2017-Oct-19 04:30N 43°48' E 028°50'4 8.5
2017-Oct-19 04:00N 43°52' E 028°49'4 8.7
2017-Oct-19 03:30N 43°57' E 028°49'4 8.6
2017-Oct-19 03:00N 44°01' E 028°47'4 8.7
2017-Oct-19 02:30N 44°04' E 028°43'3 5.2
2017-Oct-19 01:59N 44°07' E 028°44'0 0.0
2017-Oct-19 01:26N 44°07' E 028°44'0 0.0
2017-Oct-19 00:56N 44°07' E 028°44'0 0.0
2017-Oct-19 00:29N 44°07' E 028°44'0 0.0
2017-Oct-18 23:59N 44°07' E 028°44'0 0.0
2017-Oct-18 23:29N 44°07' E 028°44'0 0.0
2017-Oct-18 22:59N 44°07' E 028°44'1 2.0
2017-Oct-18 22:30N 44°07' E 028°46'3 5.3
2017-Oct-18 22:00N 44°07' E 028°49'4 8.0
2017-Oct-18 21:30N 44°08' E 028°54'4 8.8
2017-Oct-18 21:00N 44°10' E 029°00'4 8.8
2017-Oct-18 20:30N 44°12' E 029°06'4 8.9
2017-Oct-18 20:00N 44°14' E 029°11'4 8.9
2017-Oct-18 19:30N 44°16' E 029°17'4 8.8
2017-Oct-18 19:00N 44°18' E 029°22'4 8.7
2017-Oct-18 18:30N 44°20' E 029°28'4 8.4
2017-Oct-18 18:00N 44°22' E 029°33'4 9.0
2017-Oct-18 17:30N 44°25' E 029°38'5 9.1
2017-Oct-18 17:00N 44°27' E 029°43'5 9.0
2017-Oct-18 16:28N 44°31' E 029°47'5 9.3
2017-Oct-18 15:56N 44°35' E 029°51'4 8.7
2017-Oct-18 15:30N 44°38' E 029°54'4 9.0
2017-Oct-18 15:00N 44°43' E 029°55'9 8.9
2017-Oct-18 14:00N 44°51' E 029°59'4 8.3
2017-Oct-18 13:30N 44°55' E 029°60'5 9.0
2017-Oct-18 13:00N 44°59' E 029°57'37 7.9
2017-Oct-18 08:18N 45°10' E 029°06'  
2017-Oct-13 17:02N 40°59' E 028°60'0 7.1
2017-Oct-13 17:00N 40°59' E 028°60'4 6.6
2017-Oct-13 16:28N 40°55' E 028°58'3 6.8
2017-Oct-13 15:59N 40°53' E 028°55'4 7.4
2017-Oct-13 15:27N 40°51' E 028°51'4 5.2
2017-Oct-13 14:41N 40°50' E 028°46'2 6.3
2017-Oct-13 14:21N 40°49' E 028°43'130 8.5
2017-Oct-12 23:04N 39°60' E 026°05'  
Track history (hours):
 
Tides and Currents Weather Stations Pressure Air Temp Water Temp Dewpoint Dewpoint Depression Visibility Wind Speed Wind Dir Waves Ship Positions

Eleni K III

Last reported at 2017-Oct-22 05:39 UTC. Time now 2017-Oct-22 06:37 UTC.
Position N 38°36' E 025°01'.

Length 81 m; draft 5.5 m.

Type: Cargo ship. MMSI: 256203000.

Date/timePositionNaut miles runAvg speedWind from/ knotsBaromVisibWave heightAir tempDewpointWater temp
2017-Oct-22 05:39N 38°36' E 025°01'11 9.1
2017-Oct-22 04:25N 38°46' E 025°07'60 8.9
2017-Oct-21 21:39N 39°40' E 025°42'7 8.4
2017-Oct-21 20:47N 39°47' E 025°46'7 9.1
2017-Oct-21 20:02N 39°53' E 025°50'0 9.3
2017-Oct-21 20:00N 39°53' E 025°50'5 9.1
2017-Oct-21 19:28N 39°57' E 025°54'9 8.8
2017-Oct-21 18:29N 40°01' E 026°04'7 9.8
2017-Oct-21 17:46N 40°02' E 026°13'11 9.7
2017-Oct-21 16:39N 40°10' E 026°23'1 9.8
2017-Oct-21 16:30N 40°11' E 026°23'141 6.8
2017-Oct-20 19:55N 41°25' E 029°00'1 1.1
2017-Oct-20 19:15N 41°26' E 029°01'0 1.0
2017-Oct-20 18:53N 41°26' E 029°02'1 1.9
2017-Oct-20 18:19N 41°25' E 029°01'0 1.2
2017-Oct-20 18:00N 41°25' E 029°01'0 0.6
2017-Oct-20 17:28N 41°25' E 029°02'0 0.9
2017-Oct-20 17:00N 41°25' E 029°02'0 0.9
2017-Oct-20 16:30N 41°26' E 029°02'0 0.6
2017-Oct-20 16:00N 41°26' E 029°03'0 0.3
2017-Oct-20 15:30N 41°26' E 029°03'0 0.7
2017-Oct-20 15:00N 41°26' E 029°03'4 4.5
2017-Oct-20 14:00N 41°21' E 029°04'0 0.4
2017-Oct-20 13:30N 41°21' E 029°04'0 0.4
2017-Oct-20 13:00N 41°21' E 029°05'0 0.4
2017-Oct-20 12:30N 41°22' E 029°05'0 0.4
2017-Oct-20 11:57N 41°22' E 029°05'0 0.4
2017-Oct-20 11:30N 41°22' E 029°05'0 0.3
2017-Oct-20 11:00N 41°22' E 029°05'0 0.4
2017-Oct-20 10:30N 41°22' E 029°04'0 0.3
2017-Oct-20 10:00N 41°22' E 029°04'0 0.2
2017-Oct-20 09:26N 41°23' E 029°04'0 0.2
2017-Oct-20 09:00N 41°23' E 029°04'0 0.2
2017-Oct-20 08:30N 41°23' E 029°04'0 0.1
2017-Oct-20 07:41N 41°23' E 029°04'0 0.1
2017-Oct-20 07:30N 41°23' E 029°04'0 0.1
2017-Oct-20 07:00N 41°23' E 029°04'0 0.2
2017-Oct-20 06:30N 41°23' E 029°04'0 0.2
2017-Oct-20 06:00N 41°23' E 029°04'0 0.3
2017-Oct-20 05:30N 41°23' E 029°04'0 0.3
2017-Oct-20 05:00N 41°23' E 029°04'0 0.3
2017-Oct-20 04:30N 41°23' E 029°05'0 0.2
2017-Oct-20 04:00N 41°23' E 029°05'0 0.3
2017-Oct-20 03:30N 41°23' E 029°05'0 0.3
2017-Oct-20 03:00N 41°23' E 029°05'0 0.2
2017-Oct-20 02:30N 41°23' E 029°05'0 0.3
2017-Oct-20 01:47N 41°24' E 029°05'0 0.4
2017-Oct-20 01:23N 41°24' E 029°05'0 0.4
2017-Oct-20 01:00N 41°24' E 029°05'0 0.4
2017-Oct-20 00:30N 41°24' E 029°05'0 0.4
2017-Oct-20 00:00N 41°24' E 029°05'0 0.5
2017-Oct-19 23:28N 41°25' E 029°05'0 0.5
2017-Oct-19 23:00N 41°25' E 029°05'0 0.5
2017-Oct-19 22:04N 41°25' E 029°05'0 0.5
2017-Oct-19 22:00N 41°25' E 029°05'0 0.5
2017-Oct-19 21:30N 41°25' E 029°05'0 0.5
2017-Oct-19 21:00N 41°26' E 029°04'0 0.6
2017-Oct-19 20:30N 41°26' E 029°04'1 2.2
2017-Oct-19 20:00N 41°27' E 029°04'4 8.0
2017-Oct-19 19:30N 41°31' E 029°04'4 8.6
2017-Oct-19 19:00N 41°35' E 029°05'5 9.9
2017-Oct-19 18:28N 41°40' E 029°05'5 9.8
2017-Oct-19 18:00N 41°45' E 029°04'5 9.6
2017-Oct-19 17:30N 41°50' E 029°04'5 9.2
2017-Oct-19 16:59N 41°55' E 029°03'6 9.2
2017-Oct-19 16:18N 42°01' E 029°02'3 9.0
2017-Oct-19 16:00N 42°03' E 029°02'24 9.1
2017-Oct-19 13:20N 42°28' E 028°59'3 9.5
2017-Oct-19 13:01N 42°31' E 028°59'5 9.4
2017-Oct-19 12:31N 42°35' E 028°58'5 9.4
2017-Oct-19 12:00N 42°40' E 028°58'5 9.4
2017-Oct-19 11:31N 42°45' E 028°57'5 9.4
2017-Oct-19 11:01N 42°49' E 028°57'5 9.2
2017-Oct-19 10:30N 42°54' E 028°56'5 9.0
2017-Oct-19 10:00N 42°58' E 028°56'5 9.1
2017-Oct-19 09:30N 43°03' E 028°55'5 9.2
2017-Oct-19 09:00N 43°08' E 028°55'5 9.3
2017-Oct-19 08:30N 43°12' E 028°54'5 9.2
2017-Oct-19 08:00N 43°17' E 028°53'5 9.1
2017-Oct-19 07:30N 43°21' E 028°53'5 9.0
2017-Oct-19 07:00N 43°26' E 028°52'5 9.1
2017-Oct-19 06:30N 43°30' E 028°52'4 9.0
2017-Oct-19 06:00N 43°35' E 028°51'5 9.1
2017-Oct-19 05:30N 43°39' E 028°51'4 8.9
2017-Oct-19 05:00N 43°44' E 028°50'4 8.5
2017-Oct-19 04:30N 43°48' E 028°50'4 8.5
2017-Oct-19 04:00N 43°52' E 028°49'4 8.7
2017-Oct-19 03:30N 43°57' E 028°49'4 8.6
2017-Oct-19 03:00N 44°01' E 028°47'4 8.7
2017-Oct-19 02:30N 44°04' E 028°43'3 5.2
2017-Oct-19 01:59N 44°07' E 028°44'0 0.0
2017-Oct-19 01:26N 44°07' E 028°44'0 0.0
2017-Oct-19 00:56N 44°07' E 028°44'0 0.0
2017-Oct-19 00:29N 44°07' E 028°44'0 0.0
2017-Oct-18 23:59N 44°07' E 028°44'0 0.0
2017-Oct-18 23:29N 44°07' E 028°44'0 0.0
2017-Oct-18 22:59N 44°07' E 028°44'1 2.0
2017-Oct-18 22:30N 44°07' E 028°46'3 5.3
2017-Oct-18 22:00N 44°07' E 028°49'4 8.0
2017-Oct-18 21:30N 44°08' E 028°54'4 8.8
2017-Oct-18 21:00N 44°10' E 029°00'4 8.8
2017-Oct-18 20:30N 44°12' E 029°06'4 8.9
2017-Oct-18 20:00N 44°14' E 029°11'4 8.9
2017-Oct-18 19:30N 44°16' E 029°17'4 8.8
2017-Oct-18 19:00N 44°18' E 029°22'4 8.7
2017-Oct-18 18:30N 44°20' E 029°28'4 8.4
2017-Oct-18 18:00N 44°22' E 029°33'4 9.0
2017-Oct-18 17:30N 44°25' E 029°38'5 9.1
2017-Oct-18 17:00N 44°27' E 029°43'5 9.0
2017-Oct-18 16:28N 44°31' E 029°47'5 9.3
2017-Oct-18 15:56N 44°35' E 029°51'4 8.7
2017-Oct-18 15:30N 44°38' E 029°54'4 9.0
2017-Oct-18 15:00N 44°43' E 029°55'9 8.9
2017-Oct-18 14:00N 44°51' E 029°59'4 8.3
2017-Oct-18 13:30N 44°55' E 029°60'5 9.0
2017-Oct-18 13:00N 44°59' E 029°57'37 7.9
2017-Oct-18 08:18N 45°10' E 029°06'  
2017-Oct-13 17:02N 40°59' E 028°60'0 7.1
2017-Oct-13 17:00N 40°59' E 028°60'4 6.6
2017-Oct-13 16:28N 40°55' E 028°58'3 6.8
2017-Oct-13 15:59N 40°53' E 028°55'4 7.4
2017-Oct-13 15:27N 40°51' E 028°51'4 5.2
2017-Oct-13 14:41N 40°50' E 028°46'2 6.3
2017-Oct-13 14:21N 40°49' E 028°43'130 8.5
2017-Oct-12 23:04N 39°60' E 026°05'  

Dump ship's entire track history